sensor_id;sensor_type;location;lat;lon;timestamp;P1;durP1;ratioP1;P2;durP2;ratioP2
84901;SDS011;75166;51.198;6.010;2024-03-23T00:55:34;9.43;;;2.40;;
84901;SDS011;75166;51.198;6.010;2024-03-23T00:58:00;8.63;;;2.33;;
84901;SDS011;75166;51.198;6.010;2024-03-23T01:00:25;9.80;;;2.30;;
84901;SDS011;75166;51.198;6.010;2024-03-23T01:02:51;8.18;;;1.90;;
84901;SDS011;75166;51.198;6.010;2024-03-23T01:05:16;7.60;;;1.90;;
84901;SDS011;75166;51.198;6.010;2024-03-23T01:07:42;10.10;;;2.30;;
84901;SDS011;75166;51.198;6.010;2024-03-23T01:10:08;8.02;;;1.77;;
84901;SDS011;75166;51.198;6.010;2024-03-23T01:12:34;9.73;;;1.98;;
84901;SDS011;75166;51.198;6.010;2024-03-23T01:15:02;8.60;;;1.85;;
84901;SDS011;75166;51.198;6.010;2024-03-23T01:17:28;9.95;;;1.95;;
84901;SDS011;75166;51.198;6.010;2024-03-23T01:19:54;11.15;;;2.30;;
84901;SDS011;75166;51.198;6.010;2024-03-23T01:22:22;9.40;;;2.10;;
84901;SDS011;75166;51.198;6.010;2024-03-23T01:24:48;9.27;;;2.10;;
84901;SDS011;75166;51.198;6.010;2024-03-23T01:27:13;8.95;;;2.15;;
84901;SDS011;75166;51.198;6.010;2024-03-23T01:29:39;8.27;;;1.90;;
84901;SDS011;75166;51.198;6.010;2024-03-23T01:32:05;7.05;;;1.60;;
84901;SDS011;75166;51.198;6.010;2024-03-23T01:34:32;8.13;;;1.90;;
84901;SDS011;75166;51.198;6.010;2024-03-23T01:36:57;8.73;;;1.90;;
84901;SDS011;75166;51.198;6.010;2024-03-23T01:39:23;8.05;;;1.83;;
84901;SDS011;75166;51.198;6.010;2024-03-23T01:41:49;8.38;;;2.03;;
84901;SDS011;75166;51.198;6.010;2024-03-23T01:44:16;7.68;;;1.90;;
84901;SDS011;75166;51.198;6.010;2024-03-23T01:46:42;7.95;;;1.95;;
84901;SDS011;75166;51.198;6.010;2024-03-23T01:49:08;10.15;;;1.80;;
84901;SDS011;75166;51.198;6.010;2024-03-23T01:51:35;8.35;;;1.80;;
84901;SDS011;75166;51.198;6.010;2024-03-23T01:54:02;8.82;;;1.70;;
84901;SDS011;75166;51.198;6.010;2024-03-23T01:56:31;7.80;;;1.88;;
84901;SDS011;75166;51.198;6.010;2024-03-23T01:59:00;6.38;;;1.60;;
84901;SDS011;75166;51.198;6.010;2024-03-23T02:01:26;7.13;;;1.63;;
84901;SDS011;75166;51.198;6.010;2024-03-23T02:03:51;7.00;;;1.63;;
84901;SDS011;75166;51.198;6.010;2024-03-23T02:06:17;6.10;;;1.63;;
84901;SDS011;75166;51.198;6.010;2024-03-23T02:08:43;7.97;;;1.80;;
84901;SDS011;75166;51.198;6.010;2024-03-23T02:11:09;7.30;;;1.70;;
84901;SDS011;75166;51.198;6.010;2024-03-23T02:13:35;8.05;;;2.10;;
84901;SDS011;75166;51.198;6.010;2024-03-23T02:16:01;7.40;;;1.65;;
84901;SDS011;75166;51.198;6.010;2024-03-23T02:18:26;7.07;;;1.75;;
84901;SDS011;75166;51.198;6.010;2024-03-23T02:20:52;6.60;;;1.70;;
84901;SDS011;75166;51.198;6.010;2024-03-23T02:23:18;5.90;;;1.70;;
84901;SDS011;75166;51.198;6.010;2024-03-23T02:25:44;8.85;;;1.88;;
84901;SDS011;75166;51.198;6.010;2024-03-23T02:28:10;7.22;;;1.80;;
84901;SDS011;75166;51.198;6.010;2024-03-23T02:30:36;7.30;;;1.80;;
84901;SDS011;75166;51.198;6.010;2024-03-23T02:33:01;7.72;;;1.90;;
84901;SDS011;75166;51.198;6.010;2024-03-23T02:35:27;8.13;;;1.75;;
84901;SDS011;75166;51.198;6.010;2024-03-23T02:37:53;8.98;;;1.65;;
84901;SDS011;75166;51.198;6.010;2024-03-23T02:40:21;6.93;;;1.50;;
84901;SDS011;75166;51.198;6.010;2024-03-23T02:42:47;7.50;;;1.60;;
84901;SDS011;75166;51.198;6.010;2024-03-23T02:45:13;5.63;;;1.90;;
84901;SDS011;75166;51.198;6.010;2024-03-23T02:47:39;7.45;;;1.88;;
84901;SDS011;75166;51.198;6.010;2024-03-23T02:50:04;6.38;;;1.70;;
84901;SDS011;75166;51.198;6.010;2024-03-23T02:52:30;7.97;;;1.65;;
84901;SDS011;75166;51.198;6.010;2024-03-23T02:54:56;9.02;;;1.80;;
84901;SDS011;75166;51.198;6.010;2024-03-23T02:57:22;6.47;;;1.70;;
84901;SDS011;75166;51.198;6.010;2024-03-23T02:59:48;7.13;;;1.80;;
84901;SDS011;75166;51.198;6.010;2024-03-23T03:02:14;7.45;;;1.70;;
84901;SDS011;75166;51.198;6.010;2024-03-23T03:04:41;7.97;;;1.70;;
84901;SDS011;75166;51.198;6.010;2024-03-23T03:07:06;7.45;;;1.80;;
84901;SDS011;75166;51.198;6.010;2024-03-23T03:09:32;7.28;;;1.80;;
84901;SDS011;75166;51.198;6.010;2024-03-23T03:12:00;8.52;;;1.80;;
84901;SDS011;75166;51.198;6.010;2024-03-23T03:14:28;7.30;;;1.80;;
84901;SDS011;75166;51.198;6.010;2024-03-23T03:16:54;8.25;;;1.73;;
84901;SDS011;75166;51.198;6.010;2024-03-23T03:19:20;6.75;;;1.70;;
84901;SDS011;75166;51.198;6.010;2024-03-23T03:21:46;9.32;;;1.70;;
84901;SDS011;75166;51.198;6.010;2024-03-23T03:24:13;7.47;;;1.80;;
84901;SDS011;75166;51.198;6.010;2024-03-23T03:26:38;6.93;;;1.92;;
84901;SDS011;75166;51.198;6.010;2024-03-23T03:29:04;9.38;;;2.20;;
84901;SDS011;75166;51.198;6.010;2024-03-23T03:31:30;9.43;;;1.80;;
84901;SDS011;75166;51.198;6.010;2024-03-23T03:33:55;11.15;;;2.20;;
84901;SDS011;75166;51.198;6.010;2024-03-23T03:36:24;9.48;;;2.20;;
84901;SDS011;75166;51.198;6.010;2024-03-23T03:38:50;8.10;;;2.05;;
84901;SDS011;75166;51.198;6.010;2024-03-23T03:41:15;9.32;;;2.30;;
84901;SDS011;75166;51.198;6.010;2024-03-23T03:43:41;8.82;;;2.15;;
84901;SDS011;75166;51.198;6.010;2024-03-23T03:46:06;8.70;;;2.15;;
84901;SDS011;75166;51.198;6.010;2024-03-23T03:48:38;10.25;;;2.20;;
84901;SDS011;75166;51.198;6.010;2024-03-23T03:51:04;9.45;;;2.03;;
84901;SDS011;75166;51.198;6.010;2024-03-23T03:53:30;8.77;;;2.40;;
84901;SDS011;75166;51.198;6.010;2024-03-23T03:55:56;9.55;;;2.10;;
84901;SDS011;75166;51.198;6.010;2024-03-23T03:58:25;8.77;;;1.92;;
84901;SDS011;75166;51.198;6.010;2024-03-23T04:00:50;9.85;;;2.17;;
84901;SDS011;75166;51.198;6.010;2024-03-23T04:03:16;9.95;;;2.22;;
84901;SDS011;75166;51.198;6.010;2024-03-23T04:05:42;7.53;;;2.15;;
84901;SDS011;75166;51.198;6.010;2024-03-23T04:08:07;9.35;;;2.10;;
84901;SDS011;75166;51.198;6.010;2024-03-23T04:10:33;9.57;;;1.92;;
84901;SDS011;75166;51.198;6.010;2024-03-23T04:12:59;7.82;;;1.90;;
84901;SDS011;75166;51.198;6.010;2024-03-23T04:15:26;10.48;;;2.45;;
84901;SDS011;75166;51.198;6.010;2024-03-23T04:17:51;8.68;;;1.90;;
84901;SDS011;75166;51.198;6.010;2024-03-23T04:20:17;9.50;;;1.80;;
84901;SDS011;75166;51.198;6.010;2024-03-23T04:22:43;9.52;;;2.10;;
84901;SDS011;75166;51.198;6.010;2024-03-23T04:25:09;9.38;;;2.20;;
84901;SDS011;75166;51.198;6.010;2024-03-23T04:27:38;11.52;;;2.20;;
84901;SDS011;75166;51.198;6.010;2024-03-23T04:30:05;7.53;;;1.90;;
84901;SDS011;75166;51.198;6.010;2024-03-23T04:32:36;11.52;;;2.53;;
84901;SDS011;75166;51.198;6.010;2024-03-23T04:35:07;7.57;;;2.10;;
84901;SDS011;75166;51.198;6.010;2024-03-23T04:37:36;9.18;;;2.13;;
84901;SDS011;75166;51.198;6.010;2024-03-23T04:40:02;10.93;;;2.47;;
84901;SDS011;75166;51.198;6.010;2024-03-23T04:42:28;8.05;;;1.80;;
84901;SDS011;75166;51.198;6.010;2024-03-23T04:44:54;8.63;;;1.80;;
84901;SDS011;75166;51.198;6.010;2024-03-23T04:47:20;8.20;;;2.17;;
84901;SDS011;75166;51.198;6.010;2024-03-23T04:49:46;10.23;;;2.15;;
84901;SDS011;75166;51.198;6.010;2024-03-23T04:52:12;8.57;;;2.25;;
84901;SDS011;75166;51.198;6.010;2024-03-23T04:54:37;10.57;;;2.15;;
84901;SDS011;75166;51.198;6.010;2024-03-23T04:57:05;9.00;;;2.40;;
84901;SDS011;75166;51.198;6.010;2024-03-23T04:59:31;11.95;;;2.22;;
84901;SDS011;75166;51.198;6.010;2024-03-23T05:01:57;10.57;;;2.28;;
84901;SDS011;75166;51.198;6.010;2024-03-23T05:04:22;10.88;;;2.13;;
84901;SDS011;75166;51.198;6.010;2024-03-23T05:06:48;8.65;;;2.00;;
84901;SDS011;75166;51.198;6.010;2024-03-23T05:09:14;8.80;;;2.10;;
84901;SDS011;75166;51.198;6.010;2024-03-23T05:11:40;8.80;;;2.28;;
84901;SDS011;75166;51.198;6.010;2024-03-23T05:14:07;9.38;;;2.20;;
84901;SDS011;75166;51.198;6.010;2024-03-23T05:16:32;10.05;;;2.15;;
84901;SDS011;75166;51.198;6.010;2024-03-23T05:18:58;12.70;;;2.45;;
84901;SDS011;75166;51.198;6.010;2024-03-23T05:21:24;7.65;;;1.90;;
84901;SDS011;75166;51.198;6.010;2024-03-23T05:23:49;7.43;;;1.98;;
84901;SDS011;75166;51.198;6.010;2024-03-23T05:26:16;8.07;;;2.00;;
84901;SDS011;75166;51.198;6.010;2024-03-23T05:28:42;7.88;;;1.77;;
84901;SDS011;75166;51.198;6.010;2024-03-23T05:31:08;12.43;;;2.47;;
84901;SDS011;75166;51.198;6.010;2024-03-23T05:33:37;10.95;;;2.00;;
84901;SDS011;75166;51.198;6.010;2024-03-23T05:36:03;8.68;;;2.30;;
84901;SDS011;75166;51.198;6.010;2024-03-23T05:38:30;9.52;;;1.90;;
84901;SDS011;75166;51.198;6.010;2024-03-23T05:40:56;8.52;;;2.15;;
84901;SDS011;75166;51.198;6.010;2024-03-23T05:43:25;11.23;;;2.40;;
84901;SDS011;75166;51.198;6.010;2024-03-23T05:45:55;12.05;;;2.60;;
84901;SDS011;75166;51.198;6.010;2024-03-23T05:48:21;8.50;;;2.00;;
84901;SDS011;75166;51.198;6.010;2024-03-23T05:50:50;10.60;;;2.28;;
84901;SDS011;75166;51.198;6.010;2024-03-23T05:53:16;9.90;;;2.53;;
84901;SDS011;75166;51.198;6.010;2024-03-23T05:55:43;10.07;;;2.40;;
84901;SDS011;75166;51.198;6.010;2024-03-23T05:58:09;7.78;;;2.15;;
84901;SDS011;75166;51.198;6.010;2024-03-23T06:00:35;11.10;;;2.60;;
84901;SDS011;75166;51.198;6.010;2024-03-23T06:03:01;10.27;;;2.47;;
84901;SDS011;75166;51.198;6.010;2024-03-23T06:05:26;10.85;;;2.40;;
84901;SDS011;75166;51.198;6.010;2024-03-23T06:07:55;10.00;;;2.13;;
84901;SDS011;75166;51.198;6.010;2024-03-23T06:10:21;10.65;;;2.30;;
84901;SDS011;75166;51.198;6.010;2024-03-23T06:12:46;10.20;;;2.42;;
84901;SDS011;75166;51.198;6.010;2024-03-23T06:15:14;9.75;;;2.70;;
84901;SDS011;75166;51.198;6.010;2024-03-23T06:17:39;10.02;;;2.80;;
84901;SDS011;75166;51.198;6.010;2024-03-23T06:20:05;8.57;;;2.55;;
84901;SDS011;75166;51.198;6.010;2024-03-23T06:22:31;9.07;;;2.20;;
84901;SDS011;75166;51.198;6.010;2024-03-23T06:24:58;12.63;;;2.50;;
84901;SDS011;75166;51.198;6.010;2024-03-23T06:27:27;12.05;;;2.58;;
84901;SDS011;75166;51.198;6.010;2024-03-23T06:29:53;10.85;;;2.65;;
84901;SDS011;75166;51.198;6.010;2024-03-23T06:32:19;12.43;;;2.70;;
84901;SDS011;75166;51.198;6.010;2024-03-23T06:34:46;12.60;;;2.70;;
84901;SDS011;75166;51.198;6.010;2024-03-23T06:37:11;11.73;;;2.67;;
84901;SDS011;75166;51.198;6.010;2024-03-23T06:39:37;11.45;;;2.92;;
84901;SDS011;75166;51.198;6.010;2024-03-23T06:42:03;12.63;;;2.83;;
84901;SDS011;75166;51.198;6.010;2024-03-23T06:44:29;12.63;;;3.00;;
84901;SDS011;75166;51.198;6.010;2024-03-23T06:46:58;11.32;;;3.00;;
84901;SDS011;75166;51.198;6.010;2024-03-23T06:49:24;10.40;;;2.45;;
84901;SDS011;75166;51.198;6.010;2024-03-23T06:51:49;9.77;;;2.60;;
84901;SDS011;75166;51.198;6.010;2024-03-23T06:54:19;11.57;;;2.70;;
84901;SDS011;75166;51.198;6.010;2024-03-23T06:56:48;10.45;;;2.83;;
84901;SDS011;75166;51.198;6.010;2024-03-23T06:59:13;9.45;;;2.60;;
84901;SDS011;75166;51.198;6.010;2024-03-23T07:01:39;10.57;;;2.50;;
84901;SDS011;75166;51.198;6.010;2024-03-23T07:04:04;10.20;;;2.25;;
84901;SDS011;75166;51.198;6.010;2024-03-23T07:06:30;11.57;;;2.50;;
84901;SDS011;75166;51.198;6.010;2024-03-23T07:08:56;10.00;;;2.63;;
84901;SDS011;75166;51.198;6.010;2024-03-23T07:11:22;11.65;;;2.70;;
84901;SDS011;75166;51.198;6.010;2024-03-23T07:16:17;10.77;;;2.40;;
84901;SDS011;75166;51.198;6.010;2024-03-23T07:18:43;8.60;;;2.25;;
84901;SDS011;75166;51.198;6.010;2024-03-23T07:21:09;12.98;;;2.45;;
84901;SDS011;75166;51.198;6.010;2024-03-23T07:23:35;11.43;;;2.30;;
84901;SDS011;75166;51.198;6.010;2024-03-23T07:26:02;9.32;;;2.20;;
84901;SDS011;75166;51.198;6.010;2024-03-23T07:28:33;10.15;;;2.05;;
84901;SDS011;75166;51.198;6.010;2024-03-23T07:31:09;8.63;;;2.33;;
84901;SDS011;75166;51.198;6.010;2024-03-23T07:33:37;10.20;;;2.30;;
84901;SDS011;75166;51.198;6.010;2024-03-23T07:36:06;8.35;;;2.30;;
84901;SDS011;75166;51.198;6.010;2024-03-23T07:38:32;8.80;;;2.28;;
84901;SDS011;75166;51.198;6.010;2024-03-23T07:41:10;10.30;;;2.50;;
84901;SDS011;75166;51.198;6.010;2024-03-23T07:43:44;9.20;;;2.00;;
84901;SDS011;75166;51.198;6.010;2024-03-23T07:46:10;11.20;;;2.25;;
84901;SDS011;75166;51.198;6.010;2024-03-23T07:48:37;9.32;;;2.28;;
84901;SDS011;75166;51.198;6.010;2024-03-23T07:53:32;11.27;;;2.45;;
84901;SDS011;75166;51.198;6.010;2024-03-23T07:55:59;8.77;;;2.53;;
84901;SDS011;75166;51.198;6.010;2024-03-23T07:58:26;8.85;;;2.30;;
84901;SDS011;75166;51.198;6.010;2024-03-23T08:00:52;10.35;;;2.22;;
84901;SDS011;75166;51.198;6.010;2024-03-23T08:03:18;8.95;;;2.03;;
84901;SDS011;75166;51.198;6.010;2024-03-23T08:05:44;10.65;;;2.20;;
84901;SDS011;75166;51.198;6.010;2024-03-23T08:08:10;10.82;;;2.40;;
84901;SDS011;75166;51.198;6.010;2024-03-23T08:10:37;12.70;;;2.30;;
84901;SDS011;75166;51.198;6.010;2024-03-23T08:13:11;9.73;;;2.30;;
84901;SDS011;75166;51.198;6.010;2024-03-23T08:15:37;10.65;;;2.60;;
84901;SDS011;75166;51.198;6.010;2024-03-23T08:18:02;9.68;;;2.25;;
84901;SDS011;75166;51.198;6.010;2024-03-23T08:20:29;9.93;;;2.10;;
84901;SDS011;75166;51.198;6.010;2024-03-23T08:22:55;9.10;;;2.20;;
84901;SDS011;75166;51.198;6.010;2024-03-23T08:25:21;9.45;;;2.20;;
84901;SDS011;75166;51.198;6.010;2024-03-23T08:27:46;10.40;;;2.40;;
84901;SDS011;75166;51.198;6.010;2024-03-23T08:30:12;11.85;;;2.50;;
84901;SDS011;75166;51.198;6.010;2024-03-23T08:32:38;12.32;;;2.80;;
84901;SDS011;75166;51.198;6.010;2024-03-23T08:35:03;10.30;;;2.63;;
84901;SDS011;75166;51.198;6.010;2024-03-23T08:37:29;9.88;;;2.50;;
84901;SDS011;75166;51.198;6.010;2024-03-23T08:39:55;11.75;;;2.47;;
84901;SDS011;75166;51.198;6.010;2024-03-23T08:42:21;11.63;;;2.53;;
84901;SDS011;75166;51.198;6.010;2024-03-23T08:44:46;9.20;;;2.20;;
84901;SDS011;75166;51.198;6.010;2024-03-23T08:47:15;10.82;;;2.80;;
84901;SDS011;75166;51.198;6.010;2024-03-23T08:49:41;10.35;;;2.30;;
84901;SDS011;75166;51.198;6.010;2024-03-23T08:52:07;9.15;;;2.50;;
84901;SDS011;75166;51.198;6.010;2024-03-23T08:54:33;12.05;;;2.55;;
84901;SDS011;75166;51.198;6.010;2024-03-23T08:56:59;10.18;;;2.75;;
84901;SDS011;75166;51.198;6.010;2024-03-23T08:59:25;12.02;;;2.58;;
84901;SDS011;75166;51.198;6.010;2024-03-23T09:01:50;9.10;;;2.50;;
84901;SDS011;75166;51.198;6.010;2024-03-23T09:04:16;12.20;;;2.90;;
84901;SDS011;75166;51.198;6.010;2024-03-23T09:06:42;10.77;;;2.60;;
84901;SDS011;75166;51.198;6.010;2024-03-23T09:09:08;11.48;;;2.80;;
84901;SDS011;75166;51.198;6.010;2024-03-23T09:11:34;11.27;;;2.55;;
84901;SDS011;75166;51.198;6.010;2024-03-23T09:14:00;11.35;;;2.60;;
84901;SDS011;75166;51.198;6.010;2024-03-23T09:16:25;11.95;;;2.83;;
84901;SDS011;75166;51.198;6.010;2024-03-23T09:18:51;10.50;;;2.30;;
84901;SDS011;75166;51.198;6.010;2024-03-23T09:21:17;10.40;;;2.35;;
84901;SDS011;75166;51.198;6.010;2024-03-23T09:23:44;10.02;;;2.30;;
84901;SDS011;75166;51.198;6.010;2024-03-23T09:26:10;10.68;;;2.17;;
84901;SDS011;75166;51.198;6.010;2024-03-23T09:28:36;11.18;;;2.70;;
84901;SDS011;75166;51.198;6.010;2024-03-23T09:31:02;13.02;;;2.60;;
84901;SDS011;75166;51.198;6.010;2024-03-23T09:33:28;8.80;;;2.05;;
84901;SDS011;75166;51.198;6.010;2024-03-23T09:35:54;9.43;;;2.20;;
84901;SDS011;75166;51.198;6.010;2024-03-23T09:38:21;9.23;;;2.20;;
84901;SDS011;75166;51.198;6.010;2024-03-23T09:40:48;9.93;;;2.45;;
84901;SDS011;75166;51.198;6.010;2024-03-23T09:43:18;11.30;;;2.30;;
84901;SDS011;75166;51.198;6.010;2024-03-23T09:45:44;9.43;;;2.30;;
84901;SDS011;75166;51.198;6.010;2024-03-23T09:48:10;10.50;;;2.30;;
84901;SDS011;75166;51.198;6.010;2024-03-23T09:50:37;7.85;;;2.20;;
84901;SDS011;75166;51.198;6.010;2024-03-23T09:53:04;10.93;;;2.40;;
84901;SDS011;75166;51.198;6.010;2024-03-23T09:55:33;8.18;;;2.30;;
84901;SDS011;75166;51.198;6.010;2024-03-23T09:58:00;8.15;;;2.40;;
84901;SDS011;75166;51.198;6.010;2024-03-23T10:00:27;9.68;;;2.20;;
84901;SDS011;75166;51.198;6.010;2024-03-23T10:02:55;8.65;;;2.10;;
84901;SDS011;75166;51.198;6.010;2024-03-23T10:05:21;12.57;;;2.10;;
84901;SDS011;75166;51.198;6.010;2024-03-23T10:07:50;10.45;;;2.40;;
84901;SDS011;75166;51.198;6.010;2024-03-23T10:10:16;7.85;;;1.95;;
84901;SDS011;75166;51.198;6.010;2024-03-23T10:12:46;8.48;;;1.95;;
84901;SDS011;75166;51.198;6.010;2024-03-23T10:15:19;9.45;;;2.20;;
84901;SDS011;75166;51.198;6.010;2024-03-23T10:17:51;6.70;;;1.77;;
84901;SDS011;75166;51.198;6.010;2024-03-23T10:20:23;7.70;;;2.10;;
84901;SDS011;75166;51.198;6.010;2024-03-23T10:22:49;7.72;;;1.90;;
84901;SDS011;75166;51.198;6.010;2024-03-23T10:25:16;8.35;;;2.22;;
84901;SDS011;75166;51.198;6.010;2024-03-23T10:27:42;9.18;;;1.75;;
84901;SDS011;75166;51.198;6.010;2024-03-23T10:30:14;6.60;;;1.63;;
84901;SDS011;75166;51.198;6.010;2024-03-23T10:32:40;7.60;;;1.98;;
84901;SDS011;75166;51.198;6.010;2024-03-23T10:35:21;6.63;;;1.60;;
84901;SDS011;75166;51.198;6.010;2024-03-23T10:37:47;6.38;;;1.63;;
84901;SDS011;75166;51.198;6.010;2024-03-23T10:40:16;5.20;;;1.70;;
84901;SDS011;75166;51.198;6.010;2024-03-23T10:42:43;6.80;;;1.60;;
84901;SDS011;75166;51.198;6.010;2024-03-23T10:45:09;6.25;;;1.70;;
84901;SDS011;75166;51.198;6.010;2024-03-23T10:47:36;5.75;;;1.60;;
84901;SDS011;75166;51.198;6.010;2024-03-23T10:50:05;6.65;;;1.95;;
84901;SDS011;75166;51.198;6.010;2024-03-23T10:52:34;7.25;;;1.70;;
84901;SDS011;75166;51.198;6.010;2024-03-23T10:55:00;9.18;;;2.00;;
84901;SDS011;75166;51.198;6.010;2024-03-23T10:57:36;6.10;;;2.10;;
84901;SDS011;75166;51.198;6.010;2024-03-23T11:00:09;7.70;;;1.98;;
84901;SDS011;75166;51.198;6.010;2024-03-23T11:02:35;8.43;;;1.98;;
84901;SDS011;75166;51.198;6.010;2024-03-23T11:05:01;8.77;;;2.13;;
84901;SDS011;75166;51.198;6.010;2024-03-23T11:07:41;9.68;;;2.30;;
84901;SDS011;75166;51.198;6.010;2024-03-23T11:10:25;9.40;;;2.20;;
84901;SDS011;75166;51.198;6.010;2024-03-23T11:12:58;7.18;;;2.40;;
84901;SDS011;75166;51.198;6.010;2024-03-23T11:15:44;7.43;;;2.17;;
84901;SDS011;75166;51.198;6.010;2024-03-23T11:18:09;8.77;;;2.30;;
84901;SDS011;75166;51.198;6.010;2024-03-23T11:20:36;9.88;;;2.13;;
84901;SDS011;75166;51.198;6.010;2024-03-23T11:23:02;9.30;;;2.28;;
84901;SDS011;75166;51.198;6.010;2024-03-23T11:25:29;9.30;;;2.20;;
84901;SDS011;75166;51.198;6.010;2024-03-23T11:30:25;9.55;;;2.40;;
84901;SDS011;75166;51.198;6.010;2024-03-23T11:32:56;8.18;;;2.10;;
84901;SDS011;75166;51.198;6.010;2024-03-23T11:35:28;7.95;;;2.00;;
84901;SDS011;75166;51.198;6.010;2024-03-23T11:38:02;6.78;;;1.70;;
84901;SDS011;75166;51.198;6.010;2024-03-23T11:40:41;5.78;;;1.70;;
84901;SDS011;75166;51.198;6.010;2024-03-23T11:43:09;7.75;;;1.90;;
84901;SDS011;75166;51.198;6.010;2024-03-23T11:45:51;7.50;;;1.83;;
84901;SDS011;75166;51.198;6.010;2024-03-23T11:48:18;6.90;;;1.60;;
84901;SDS011;75166;51.198;6.010;2024-03-23T11:50:46;5.72;;;1.83;;
84901;SDS011;75166;51.198;6.010;2024-03-23T11:53:13;5.38;;;1.50;;
84901;SDS011;75166;51.198;6.010;2024-03-23T11:55:48;5.05;;;1.40;;
84901;SDS011;75166;51.198;6.010;2024-03-23T11:58:18;5.38;;;1.60;;
84901;SDS011;75166;51.198;6.010;2024-03-23T12:00:51;6.13;;;1.40;;
84901;SDS011;75166;51.198;6.010;2024-03-23T12:03:21;4.63;;;1.48;;
84901;SDS011;75166;51.198;6.010;2024-03-23T12:05:51;3.85;;;1.30;;
84901;SDS011;75166;51.198;6.010;2024-03-23T12:08:18;4.78;;;1.20;;
84901;SDS011;75166;51.198;6.010;2024-03-23T12:10:49;4.97;;;1.38;;
84901;SDS011;75166;51.198;6.010;2024-03-23T12:13:17;5.43;;;1.15;;
84901;SDS011;75166;51.198;6.010;2024-03-23T12:15:46;5.82;;;1.55;;
84901;SDS011;75166;51.198;6.010;2024-03-23T12:18:14;5.38;;;1.38;;
84901;SDS011;75166;51.198;6.010;2024-03-23T12:20:40;5.90;;;1.33;;
84901;SDS011;75166;51.198;6.010;2024-03-23T12:23:06;2.88;;;1.15;;
84901;SDS011;75166;51.198;6.010;2024-03-23T12:25:32;4.18;;;1.23;;
84901;SDS011;75166;51.198;6.010;2024-03-23T12:28:01;5.47;;;1.40;;
84901;SDS011;75166;51.198;6.010;2024-03-23T12:30:29;3.85;;;1.20;;
84901;SDS011;75166;51.198;6.010;2024-03-23T12:32:55;3.97;;;1.15;;
84901;SDS011;75166;51.198;6.010;2024-03-23T12:35:23;3.58;;;1.17;;
84901;SDS011;75166;51.198;6.010;2024-03-23T12:37:48;2.88;;;1.10;;
84901;SDS011;75166;51.198;6.010;2024-03-23T12:40:14;4.32;;;1.10;;
84901;SDS011;75166;51.198;6.010;2024-03-23T12:42:40;4.07;;;1.10;;
84901;SDS011;75166;51.198;6.010;2024-03-23T12:45:05;3.85;;;1.20;;
84901;SDS011;75166;51.198;6.010;2024-03-23T12:47:31;3.45;;;1.10;;
84901;SDS011;75166;51.198;6.010;2024-03-23T12:49:57;4.95;;;1.10;;
84901;SDS011;75166;51.198;6.010;2024-03-23T12:52:22;3.97;;;1.20;;
84901;SDS011;75166;51.198;6.010;2024-03-23T12:54:53;5.30;;;1.35;;
84901;SDS011;75166;51.198;6.010;2024-03-23T12:57:21;4.13;;;1.48;;
84901;SDS011;75166;51.198;6.010;2024-03-23T12:59:48;3.85;;;1.25;;
84901;SDS011;75166;51.198;6.010;2024-03-23T13:02:16;4.53;;;1.30;;
84901;SDS011;75166;51.198;6.010;2024-03-23T13:04:43;4.05;;;1.42;;
84901;SDS011;75166;51.198;6.010;2024-03-23T13:07:09;5.60;;;1.70;;
84901;SDS011;75166;51.198;6.010;2024-03-23T13:09:35;3.97;;;1.42;;
84901;SDS011;75166;51.198;6.010;2024-03-23T13:12:00;6.70;;;1.58;;
84901;SDS011;75166;51.198;6.010;2024-03-23T13:14:26;6.20;;;1.40;;
84901;SDS011;75166;51.198;6.010;2024-03-23T13:16:54;5.07;;;1.40;;
84901;SDS011;75166;51.198;6.010;2024-03-23T13:19:20;6.78;;;1.40;;
84901;SDS011;75166;51.198;6.010;2024-03-23T13:21:50;3.67;;;1.25;;
84901;SDS011;75166;51.198;6.010;2024-03-23T13:24:15;5.38;;;1.35;;
84901;SDS011;75166;51.198;6.010;2024-03-23T13:26:41;4.03;;;1.33;;
84901;SDS011;75166;51.198;6.010;2024-03-23T13:29:06;4.72;;;1.30;;
84901;SDS011;75166;51.198;6.010;2024-03-23T13:31:35;5.15;;;1.40;;
84901;SDS011;75166;51.198;6.010;2024-03-23T13:34:00;4.88;;;1.45;;
84901;SDS011;75166;51.198;6.010;2024-03-23T13:36:29;5.63;;;1.42;;
84901;SDS011;75166;51.198;6.010;2024-03-23T13:38:55;3.47;;;1.40;;
84901;SDS011;75166;51.198;6.010;2024-03-23T13:41:20;5.65;;;1.50;;
84901;SDS011;75166;51.198;6.010;2024-03-23T13:43:46;5.72;;;1.40;;
84901;SDS011;75166;51.198;6.010;2024-03-23T13:46:11;4.85;;;1.40;;
84901;SDS011;75166;51.198;6.010;2024-03-23T13:48:37;6.53;;;1.60;;
84901;SDS011;75166;51.198;6.010;2024-03-23T13:51:03;5.32;;;1.75;;
84901;SDS011;75166;51.198;6.010;2024-03-23T13:53:29;5.70;;;1.60;;
84901;SDS011;75166;51.198;6.010;2024-03-23T13:55:55;3.90;;;1.70;;
84901;SDS011;75166;51.198;6.010;2024-03-23T13:58:24;5.07;;;1.48;;
84901;SDS011;75166;51.198;6.010;2024-03-23T14:00:50;5.18;;;1.50;;
84901;SDS011;75166;51.198;6.010;2024-03-23T14:03:16;2.53;;;1.10;;
84901;SDS011;75166;51.198;6.010;2024-03-23T14:05:43;5.05;;;1.42;;
84901;SDS011;75166;51.198;6.010;2024-03-23T14:08:09;5.95;;;1.58;;
84901;SDS011;75166;51.198;6.010;2024-03-23T14:10:36;4.93;;;1.30;;
84901;SDS011;75166;51.198;6.010;2024-03-23T14:13:05;5.68;;;1.40;;
84901;SDS011;75166;51.198;6.010;2024-03-23T14:15:31;5.38;;;1.50;;
84901;SDS011;75166;51.198;6.010;2024-03-23T14:17:57;5.55;;;1.30;;
84901;SDS011;75166;51.198;6.010;2024-03-23T14:20:23;4.57;;;1.38;;
84901;SDS011;75166;51.198;6.010;2024-03-23T14:22:49;4.60;;;1.40;;
84901;SDS011;75166;51.198;6.010;2024-03-23T14:25:14;4.18;;;1.40;;
84901;SDS011;75166;51.198;6.010;2024-03-23T14:27:40;4.85;;;1.40;;
84901;SDS011;75166;51.198;6.010;2024-03-23T14:30:08;4.22;;;1.52;;
84901;SDS011;75166;51.198;6.010;2024-03-23T14:32:34;3.67;;;1.30;;
84901;SDS011;75166;51.198;6.010;2024-03-23T14:35:01;3.83;;;1.13;;
84901;SDS011;75166;51.198;6.010;2024-03-23T14:37:27;5.10;;;1.55;;
84901;SDS011;75166;51.198;6.010;2024-03-23T14:39:55;5.88;;;1.42;;
84901;SDS011;75166;51.198;6.010;2024-03-23T14:42:36;3.20;;;1.15;;
84901;SDS011;75166;51.198;6.010;2024-03-23T14:48:32;4.65;;;1.40;;
84901;SDS011;75166;51.198;6.010;2024-03-23T14:50:58;4.80;;;1.50;;
84901;SDS011;75166;51.198;6.010;2024-03-23T14:53:25;7.95;;;1.70;;
84901;SDS011;75166;51.198;6.010;2024-03-23T14:55:54;4.88;;;1.50;;
84901;SDS011;75166;51.198;6.010;2024-03-23T14:58:19;3.58;;;1.40;;
84901;SDS011;75166;51.198;6.010;2024-03-23T15:00:45;6.22;;;1.52;;
84901;SDS011;75166;51.198;6.010;2024-03-23T15:03:10;5.25;;;1.48;;
84901;SDS011;75166;51.198;6.010;2024-03-23T15:05:36;3.72;;;1.38;;
84901;SDS011;75166;51.198;6.010;2024-03-23T15:08:02;6.00;;;1.33;;
84901;SDS011;75166;51.198;6.010;2024-03-23T15:10:28;4.82;;;1.50;;
84901;SDS011;75166;51.198;6.010;2024-03-23T15:12:54;6.35;;;1.63;;
84901;SDS011;75166;51.198;6.010;2024-03-23T15:15:20;4.78;;;1.52;;
84901;SDS011;75166;51.198;6.010;2024-03-23T15:17:45;5.88;;;1.30;;
84901;SDS011;75166;51.198;6.010;2024-03-23T15:20:11;5.28;;;1.30;;
84901;SDS011;75166;51.198;6.010;2024-03-23T15:22:37;5.10;;;1.30;;
84901;SDS011;75166;51.198;6.010;2024-03-23T15:25:03;3.67;;;1.00;;
84901;SDS011;75166;51.198;6.010;2024-03-23T15:27:29;4.22;;;1.20;;
84901;SDS011;75166;51.198;6.010;2024-03-23T15:29:57;3.92;;;1.10;;
84901;SDS011;75166;51.198;6.010;2024-03-23T15:32:23;4.78;;;1.40;;
84901;SDS011;75166;51.198;6.010;2024-03-23T15:34:49;4.55;;;1.08;;
84901;SDS011;75166;51.198;6.010;2024-03-23T15:37:14;5.93;;;1.45;;
84901;SDS011;75166;51.198;6.010;2024-03-23T15:39:40;4.35;;;1.38;;
84901;SDS011;75166;51.198;6.010;2024-03-23T15:42:08;4.45;;;1.20;;
84901;SDS011;75166;51.198;6.010;2024-03-23T15:44:35;4.03;;;1.30;;
84901;SDS011;75166;51.198;6.010;2024-03-23T15:47:01;5.30;;;1.50;;
84901;SDS011;75166;51.198;6.010;2024-03-23T15:49:26;3.42;;;1.13;;